Time;durP1;ratioP1;P1;durP2;ratioP2;P2;SDS_P1;SDS_P2;PMS_P1;PMS_P2;Temp;Humidity;BMP_temperature;BMP_pressure;BME280_temperature;BME280_humidity;BME280_pressure;Samples;Min_cycle;Max_cycle;Signal;HPM_P1;HPM_P2
2022/06/30 00:00:07;;;;;;;2.80;2.60;;;;;;;20.26;100.00;99021.44;5118197;27;20240;-76
2022/06/30 00:02:37;;;;;;;2.90;2.70;;;;;;;20.21;100.00;99027.75;5103645;27;20304;-77
2022/06/30 00:05:05;;;;;;;3.10;2.73;;;;;;;20.20;100.00;99021.50;5121981;27;20727;-78
2022/06/30 00:07:31;;;;;;;3.20;2.90;;;;;;;20.22;100.00;99018.50;5114528;27;20316;-78
2022/06/30 00:09:58;;;;;;;2.90;2.70;;;;;;;20.18;100.00;99006.59;5116978;27;20237;-77
2022/06/30 00:12:24;;;;;;;2.93;2.63;;;;;;;20.16;100.00;99008.78;5111630;27;20237;-78
2022/06/30 00:14:51;;;;;;;3.53;2.90;;;;;;;20.14;100.00;99009.13;5123848;27;20257;-77
2022/06/30 00:17:18;;;;;;;2.97;2.67;;;;;;;20.13;100.00;98993.09;5114275;27;20241;-76
2022/06/30 00:19:47;;;;;;;3.03;2.73;;;;;;;20.10;100.00;98988.25;5116040;27;20301;-76
2022/06/30 00:22:14;;;;;;;4.73;3.17;;;;;;;20.01;100.00;98990.03;5125874;27;20318;-77
2022/06/30 00:24:40;;;;;;;3.67;3.20;;;;;;;19.98;100.00;98971.56;5119080;27;20387;-77
2022/06/30 00:27:07;;;;;;;3.50;3.20;;;;;;;19.87;100.00;98981.00;5126489;27;20329;-77
2022/06/30 00:29:34;;;;;;;3.97;3.10;;;;;;;19.86;100.00;99003.84;5121951;27;20234;-76
2022/06/30 00:32:01;;;;;;;3.73;3.40;;;;;;;19.84;100.00;99016.91;5095661;28;20229;-77
2022/06/30 00:34:28;;;;;;;3.40;3.17;;;;;;;19.84;100.00;99027.78;5115348;27;20226;-77
2022/06/30 00:36:55;;;;;;;3.63;3.30;;;;;;;19.84;100.00;99046.81;5116913;27;20240;-76
2022/06/30 00:39:22;;;;;;;4.07;3.27;;;;;;;19.88;100.00;99064.16;5118841;27;20797;-77
2022/06/30 00:41:49;;;;;;;3.47;3.17;;;;;;;19.90;100.00;99060.06;5103520;28;20295;-78
2022/06/30 00:44:16;;;;;;;3.40;3.10;;;;;;;19.90;100.00;99062.78;5101747;28;20235;-76
2022/06/30 00:46:43;;;;;;;3.60;3.30;;;;;;;19.93;100.00;99058.66;5111862;27;20238;-77
2022/06/30 00:49:10;;;;;;;4.20;3.43;;;;;;;19.84;100.00;99054.97;5107212;27;20234;-77
2022/06/30 00:51:36;;;;;;;4.03;3.50;;;;;;;19.73;100.00;99059.78;5112973;27;20309;-76
2022/06/30 00:54:05;;;;;;;4.00;3.50;;;;;;;19.71;100.00;99072.84;5101845;27;20229;-76
2022/06/30 00:56:33;;;;;;;3.50;3.20;;;;;;;19.69;100.00;99075.84;5083490;28;20669;-76
2022/06/30 00:59:03;;;;;;;3.60;3.30;;;;;;;19.66;100.00;99064.75;5089095;28;20311;-76
2022/06/30 01:01:31;;;;;;;4.10;3.70;;;;;;;19.65;100.00;99068.56;5112810;27;20237;-76
2022/06/30 01:03:59;;;;;;;5.00;3.50;;;;;;;19.66;100.00;99062.03;5111784;27;20264;-77
2022/06/30 01:06:26;;;;;;;4.27;3.60;;;;;;;19.57;100.00;99061.88;5110967;27;20319;-76
2022/06/30 01:08:53;;;;;;;3.90;3.50;;;;;;;19.65;100.00;99074.81;5111748;28;20227;-77
2022/06/30 01:14:04;;;;;;;3.60;3.40;;;;;;;19.55;100.00;99066.00;5105232;27;20330;-77
2022/06/30 01:16:32;;;;;;;3.67;3.37;;;;;;;19.53;100.00;99063.56;5100982;27;20223;-77
2022/06/30 01:18:59;;;;;;;4.53;3.63;;;;;;;19.48;100.00;99060.09;5085131;28;20252;-77
2022/06/30 01:21:26;;;;;;;4.03;3.63;;;;;;;19.46;100.00;99052.22;5108095;28;20233;-77
2022/06/30 01:23:53;;;;;;;4.30;3.90;;;;;;;19.52;100.00;99055.69;5106593;28;20262;-76
2022/06/30 01:26:23;;;;;;;4.10;3.70;;;;;;;19.38;100.00;99057.47;5117798;27;20229;-76
2022/06/30 01:28:51;;;;;;;4.30;3.47;;;;;;;19.28;100.00;99064.66;5101113;28;20283;-78
2022/06/30 01:31:18;;;;;;;4.10;3.80;;;;;;;19.26;100.00;99080.44;5093394;28;20234;-78
2022/06/30 01:33:45;;;;;;;5.57;3.90;;;;;;;19.27;100.00;99086.69;5105532;27;20618;-77
2022/06/30 01:36:12;;;;;;;4.67;4.03;;;;;;;19.26;100.00;99091.31;5117517;27;20233;-77
2022/06/30 01:38:38;;;;;;;4.30;3.90;;;;;;;19.25;100.00;99081.53;5111147;27;20255;-77
2022/06/30 01:41:05;;;;;;;5.77;3.90;;;;;;;19.27;100.00;99081.25;5105749;27;20244;-76
2022/06/30 01:43:32;;;;;;;4.67;4.17;;;;;;;19.25;100.00;99073.38;5120230;27;20750;-76
2022/06/30 01:45:58;;;;;;;4.17;3.77;;;;;;;19.25;100.00;99086.97;5109268;27;20659;-76
2022/06/30 01:48:25;;;;;;;5.70;4.13;;;;;;;19.19;100.00;99079.16;5108423;27;20234;-76
2022/06/30 01:50:52;;;;;;;5.37;4.10;;;;;;;19.21;100.00;99069.63;5125700;27;20696;-76
2022/06/30 01:53:18;;;;;;;4.63;3.97;;;;;;;19.16;100.00;99066.97;5113096;27;20256;-77
2022/06/30 01:55:45;;;;;;;4.53;4.10;;;;;;;19.16;100.00;99066.16;5102124;27;20719;-76
2022/06/30 01:58:11;;;;;;;5.57;4.00;;;;;;;19.15;100.00;99053.66;5125123;27;20278;-77
2022/06/30 02:00:38;;;;;;;4.27;3.87;;;;;;;19.16;100.00;99037.09;5121962;27;20260;-77
2022/06/30 02:03:06;;;;;;;4.13;3.83;;;;;;;19.23;100.00;99048.41;5121939;27;20253;-77
2022/06/30 02:05:32;;;;;;;4.70;4.30;;;;;;;19.26;100.00;99052.47;5111470;27;20333;-77
2022/06/30 02:07:59;;;;;;;7.13;4.50;;;;;;;19.05;100.00;99045.63;5113634;27;20580;-78
2022/06/30 02:10:26;;;;;;;5.00;4.50;;;;;;;19.09;100.00;99035.81;5112853;27;20319;-78
2022/06/30 02:12:52;;;;;;;4.93;4.30;;;;;;;19.15;100.00;99021.09;5116190;27;20735;-76
2022/06/30 02:15:21;;;;;;;4.57;4.17;;;;;;;19.12;100.00;99021.69;5105265;27;20323;-77
2022/06/30 02:17:51;;;;;;;5.10;4.70;;;;;;;19.07;100.00;99029.88;5118320;27;20236;-76
2022/06/30 02:20:23;;;;;;;6.07;4.73;;;;;;;19.06;100.00;99042.66;5107981;28;20701;-77
2022/06/30 02:22:54;;;;;;;5.03;4.63;;;;;;;19.17;100.00;99040.63;5118113;27;20221;-77
2022/06/30 02:25:21;;;;;;;5.30;4.90;;;;;;;19.13;100.00;99050.47;5106677;28;20715;-77
2022/06/30 02:27:48;;;;;;;5.40;5.00;;;;;;;19.08;100.00;99048.59;5103432;28;20229;-76
2022/06/30 02:30:15;;;;;;;5.97;4.87;;;;;;;19.07;100.00;99057.03;5120732;27;20503;-77
2022/06/30 02:32:42;;;;;;;5.80;4.87;;;;;;;19.06;100.00;99069.78;5110924;27;20225;-77
2022/06/30 02:35:09;;;;;;;5.00;4.60;;;;;;;19.07;100.00;99073.31;5099762;27;20229;-77
2022/06/30 02:37:36;;;;;;;5.33;4.83;;;;;;;19.10;100.00;99075.44;5108202;28;20288;-76
2022/06/30 02:40:03;;;;;;;5.47;4.87;;;;;;;19.08;100.00;99085.81;5108579;28;20243;-77
2022/06/30 02:42:30;;;;;;;5.27;4.87;;;;;;;19.10;100.00;99089.84;5105780;28;20219;-77
2022/06/30 02:44:56;;;;;;;5.63;4.97;;;;;;;19.12;100.00;99075.97;5081578;28;20645;-77
2022/06/30 02:47:34;;;;;;;5.00;4.60;;;;;;;19.11;100.00;99079.78;5099634;28;20234;-77
2022/06/30 02:50:03;;;;;;;5.07;4.60;;;;;;;19.06;100.00;99088.00;5083131;28;20230;-76
2022/06/30 02:52:32;;;;;;;5.27;4.77;;;;;;;19.05;100.00;99080.94;5110546;28;20321;-77
2022/06/30 02:54:59;;;;;;;5.03;4.60;;;;;;;19.04;100.00;99071.97;5099257;28;20231;-76
2022/06/30 02:57:26;;;;;;;5.33;4.80;;;;;;;19.08;100.00;99085.81;5102094;28;20246;-76
2022/06/30 02:59:53;;;;;;;6.47;5.03;;;;;;;19.06;100.00;99091.50;5087446;27;20226;-77
2022/06/30 03:02:20;;;;;;;5.17;4.67;;;;;;;19.12;100.00;99095.81;5106175;28;20309;-76
2022/06/30 03:04:47;;;;;;;5.90;5.13;;;;;;;19.19;100.00;99098.16;5115414;27;20234;-78
2022/06/30 03:07:14;;;;;;;5.30;4.90;;;;;;;19.21;100.00;99088.63;5115580;27;20627;-77
2022/06/30 03:09:42;;;;;;;4.87;4.47;;;;;;;19.24;100.00;99087.25;5111138;27;20237;-77
2022/06/30 03:12:09;;;;;;;5.47;4.80;;;;;;;19.24;100.00;99081.81;5107944;28;20310;-77
2022/06/30 03:14:35;;;;;;;6.20;4.77;;;;;;;19.29;100.00;99084.47;5110566;27;20321;-77
2022/06/30 03:17:02;;;;;;;4.97;4.57;;;;;;;19.31;100.00;99085.00;5110858;27;20237;-77
2022/06/30 03:19:29;;;;;;;5.33;4.70;;;;;;;19.34;100.00;99096.09;5113193;27;20664;-77
2022/06/30 03:21:56;;;;;;;5.20;4.80;;;;;;;19.45;100.00;99094.09;5118104;27;20321;-77
2022/06/30 03:24:22;;;;;;;4.83;4.40;;;;;;;19.56;100.00;99084.69;5113621;27;20583;-77
2022/06/30 03:26:50;;;;;;;4.60;4.20;;;;;;;19.71;100.00;99091.84;5122262;27;20760;-76
2022/06/30 03:29:17;;;;;;;6.33;4.43;;;;;;;19.88;100.00;99094.06;5109116;27;20325;-76
2022/06/30 03:31:43;;;;;;;6.20;4.70;;;;;;;19.99;100.00;99115.38;5111188;27;20242;-77
2022/06/30 03:34:10;;;;;;;4.70;4.30;;;;;;;20.11;100.00;99126.63;5113679;27;20232;-77
2022/06/30 03:36:37;;;;;;;4.87;4.47;;;;;;;20.20;100.00;99122.13;5115900;27;20321;-77
2022/06/30 03:39:04;;;;;;;6.33;4.63;;;;;;;20.35;100.00;99104.00;5089750;28;20263;-77
2022/06/30 03:41:31;;;;;;;6.30;4.50;;;;;;;20.45;100.00;99092.97;5114301;27;20241;-77
2022/06/30 03:43:58;;;;;;;5.63;4.53;;;;;;;20.56;100.00;99078.91;5113545;27;20916;-78
2022/06/30 03:46:24;;;;;;;5.37;4.67;;;;;;;20.66;100.00;99048.00;5104131;27;20700;-77
2022/06/30 03:48:51;;;;;;;4.93;4.43;;;;;;;20.92;100.00;99031.97;5109541;27;20322;-77
2022/06/30 03:51:18;;;;;;;5.17;4.40;;;;;;;21.14;100.00;99023.16;5113944;27;20686;-77
2022/06/30 03:53:44;;;;;;;5.80;4.50;;;;;;;21.34;100.00;99030.91;5103273;27;20322;-77
2022/06/30 03:56:11;;;;;;;4.80;4.40;;;;;;;21.44;100.00;99023.31;5115438;27;20310;-77
2022/06/30 03:58:38;;;;;;;5.13;4.63;;;;;;;21.51;100.00;98991.00;5115999;27;20305;-77
2022/06/30 04:01:04;;;;;;;5.47;4.70;;;;;;;21.48;100.00;98980.72;5121966;27;20219;-77
2022/06/30 04:03:31;;;;;;;4.93;4.43;;;;;;;21.44;100.00;98959.84;5111496;27;20256;-77
2022/06/30 04:05:58;;;;;;;5.73;3.90;;;;;;;21.93;100.00;98956.25;5115866;27;20310;-78
2022/06/30 04:08:24;;;;;;;5.00;4.40;;;;;;;22.69;100.00;98967.94;5092949;28;20761;-76
2022/06/30 04:10:51;;;;;;;4.50;3.90;;;;;;;23.29;100.00;98990.00;5118593;27;20239;-77
2022/06/30 04:13:18;;;;;;;4.40;3.93;;;;;;;23.93;100.00;99020.38;5112232;27;20247;-77
2022/06/30 04:15:45;;;;;;;3.90;3.50;;;;;;;24.50;100.00;99024.50;5115367;27;20290;-79
2022/06/30 04:18:12;;;;;;;4.53;3.90;;;;;;;24.93;100.00;99038.09;5110445;27;20932;-77
2022/06/30 04:20:39;;;;;;;4.72;3.60;;;;;;;25.26;100.00;99043.78;5114174;27;20650;-77
2022/06/30 04:23:06;;;;;;;4.07;3.60;;;;;;;25.42;100.00;99064.03;5112161;27;20246;-78
2022/06/30 04:25:33;;;;;;;4.78;3.95;;;;;;;25.93;100.00;99088.75;5109551;27;20235;-78
2022/06/30 04:28:00;;;;;;;3.92;3.55;;;;;;;26.21;100.00;99092.59;5112408;27;20326;-77
2022/06/30 04:33:13;;;;;;;7.57;4.30;;;;;;;26.53;98.71;99113.81;5104532;27;20297;-78
2022/06/30 04:35:40;;;;;;;4.50;4.10;;;;;;;26.44;99.56;99052.66;5121734;27;20230;-77
2022/06/30 04:38:07;;;;;;;3.92;3.38;;;;;;;26.11;100.00;99057.28;5113471;27;20584;-77
2022/06/30 04:43:19;;;;;;;4.22;3.40;;;;;;;25.96;100.00;99055.13;5111502;27;20284;-79
2022/06/30 04:45:46;;;;;;;4.05;3.75;;;;;;;26.01;100.00;99054.94;5113509;27;20283;-77
2022/06/30 04:48:13;;;;;;;3.72;3.42;;;;;;;26.19;100.00;99064.63;5110264;27;20234;-79
2022/06/30 04:50:40;;;;;;;4.63;3.47;;;;;;;26.44;99.77;99065.59;5108161;27;20239;-78
2022/06/30 04:53:07;;;;;;;4.32;3.78;;;;;;;26.54;100.00;99052.25;5109067;27;20241;-77
2022/06/30 04:55:34;;;;;;;4.15;3.67;;;;;;;26.34;99.40;99033.03;5111985;27;20317;-78
2022/06/30 04:58:00;;;;;;;3.75;3.45;;;;;;;25.75;100.00;99028.50;5123061;27;20762;-77
2022/06/30 05:00:27;;;;;;;5.38;3.80;;;;;;;26.19;100.00;99015.22;5115800;27;20313;-78
2022/06/30 05:02:53;;;;;;;5.75;3.60;;;;;;;25.90;100.00;99023.56;5109971;27;20318;-76
2022/06/30 05:05:20;;;;;;;4.45;4.00;;;;;;;25.82;100.00;99047.97;5122871;27;20243;-78
2022/06/30 05:07:47;;;;;;;6.18;3.88;;;;;;;25.54;100.00;99049.63;5108349;27;20285;-76
2022/06/30 05:10:13;;;;;;;5.28;3.70;;;;;;;25.26;100.00;99019.09;5115562;27;20699;-77
2022/06/30 05:12:40;;;;;;;4.07;3.67;;;;;;;25.02;100.00;98990.69;5096358;28;20250;-77
2022/06/30 05:15:07;;;;;;;4.03;3.63;;;;;;;24.62;100.00;98979.22;5111631;27;20336;-79
2022/06/30 05:17:34;;;;;;;4.88;3.80;;;;;;;24.12;100.00;98999.72;5112101;27;20313;-77
2022/06/30 05:20:01;;;;;;;5.05;4.15;;;;;;;23.81;100.00;99006.50;5112407;27;20381;-77
2022/06/30 05:22:27;;;;;;;5.35;4.28;;;;;;;23.79;100.00;99023.25;5111190;27;20669;-79
2022/06/30 05:27:39;;;;;;;5.10;3.72;;;;;;;23.87;100.00;99066.22;5110525;27;20231;-77
2022/06/30 05:30:07;;;;;;;4.03;3.72;;;;;;;24.09;100.00;99060.59;5103583;28;20226;-79
2022/06/30 05:32:34;;;;;;;4.00;3.70;;;;;;;24.33;100.00;99042.91;5122072;27;20265;-77
2022/06/30 05:35:01;;;;;;;4.07;3.67;;;;;;;24.54;100.00;99043.84;5117894;27;20221;-77
2022/06/30 05:37:28;;;;;;;4.63;3.65;;;;;;;24.80;100.00;99039.09;5106935;27;20234;-79
2022/06/30 05:39:54;;;;;;;4.20;3.80;;;;;;;25.13;100.00;99039.31;5114633;27;20231;-77
2022/06/30 05:42:21;;;;;;;4.38;3.65;;;;;;;25.36;100.00;99037.09;5115788;27;20266;-76
2022/06/30 05:44:48;;;;;;;3.97;3.60;;;;;;;25.53;100.00;99049.91;5118246;27;20219;-77
2022/06/30 05:47:14;;;;;;;4.70;3.53;;;;;;;25.82;100.00;99050.72;5113755;27;20263;-77
2022/06/30 05:49:41;;;;;;;3.90;3.60;;;;;;;25.84;100.00;99050.41;5106271;27;20254;-77
2022/06/30 05:52:08;;;;;;;4.88;3.80;;;;;;;25.84;100.00;99044.91;5114597;27;20315;-77
2022/06/30 05:54:34;;;;;;;4.68;3.65;;;;;;;25.84;100.00;99062.19;5118289;27;20309;-77
2022/06/30 05:57:01;;;;;;;4.20;3.80;;;;;;;25.56;100.00;99069.28;5105744;28;20312;-77
2022/06/30 05:59:28;;;;;;;4.00;3.70;;;;;;;26.13;100.00;99066.78;5120022;27;20265;-79
2022/06/30 06:01:55;;;;;;;4.88;3.75;;;;;;;26.21;100.00;99067.88;5075004;28;20255;-77
2022/06/30 06:04:21;;;;;;;8.20;4.10;;;;;;;26.32;100.00;99063.56;5121596;27;20302;-77
2022/06/30 06:06:49;;;;;;;7.88;4.35;;;;;;;25.70;100.00;99063.56;5101210;28;20249;-77
2022/06/30 06:09:15;;;;;;;5.68;3.90;;;;;;;25.82;100.00;99061.69;5110910;27;20252;-78
2022/06/30 06:11:42;;;;;;;6.50;3.92;;;;;;;25.64;100.00;99051.97;5112032;27;20230;-77
2022/06/30 06:14:09;;;;;;;5.32;3.45;;;;;;;25.44;100.00;99049.97;5110233;27;20390;-77
2022/06/30 06:16:36;;;;;;;5.38;3.67;;;;;;;25.06;100.00;99065.63;5116330;27;20233;-77
2022/06/30 06:19:03;;;;;;;3.78;3.47;;;;;;;24.81;100.00;99065.38;5113553;27;20229;-77
2022/06/30 06:21:29;;;;;;;4.10;3.80;;;;;;;24.46;100.00;99061.88;5109926;27;20227;-77
2022/06/30 06:23:56;;;;;;;4.03;3.72;;;;;;;24.67;100.00;99053.00;5104793;27;20331;-76
2022/06/30 06:26:23;;;;;;;4.40;4.00;;;;;;;24.77;100.00;99058.94;5101788;27;20240;-76
2022/06/30 06:29:08;;;;;;;4.38;3.97;;;;;;;24.98;100.00;99056.31;5112732;27;20712;-77
2022/06/30 06:31:39;;;;;;;4.43;4.03;;;;;;;25.07;100.00;99067.22;5104553;28;20260;-77
2022/06/30 06:34:07;;;;;;;4.00;3.80;;;;;;;24.85;100.00;99060.84;5109192;27;20613;-77
2022/06/30 06:36:34;;;;;;;3.70;3.40;;;;;;;25.14;100.00;99060.13;5106286;28;20233;-77
2022/06/30 06:39:01;;;;;;;4.15;3.67;;;;;;;25.41;100.00;99062.41;5105880;28;20248;-77
2022/06/30 06:41:27;;;;;;;4.15;3.75;;;;;;;25.69;100.00;99068.25;5103284;28;20230;-77
2022/06/30 06:43:54;;;;;;;4.55;3.88;;;;;;;26.14;100.00;99057.41;5117857;28;20231;-76
2022/06/30 06:46:26;;;;;;;4.30;3.90;;;;;;;26.30;100.00;99068.63;5102360;28;20324;-76
2022/06/30 06:48:55;;;;;;;3.85;3.47;;;;;;;26.81;97.51;99058.25;5100354;28;20250;-76
2022/06/30 06:51:22;;;;;;;4.78;3.65;;;;;;;26.57;97.43;99057.03;5107373;28;20317;-76
2022/06/30 06:53:48;;;;;;;3.85;3.53;;;;;;;26.88;91.02;99066.75;5109501;28;20229;-77
2022/06/30 06:56:15;;;;;;;4.13;3.17;;;;;;;26.89;89.77;99063.69;5114244;28;20237;-77
2022/06/30 06:58:42;;;;;;;3.85;3.55;;;;;;;26.97;93.77;99062.00;5102933;28;20328;-77
2022/06/30 07:01:08;;;;;;;4.57;3.65;;;;;;;26.63;92.97;99057.63;5108898;28;20309;-78
2022/06/30 07:03:35;;;;;;;4.47;3.45;;;;;;;26.89;91.92;99062.88;5110409;28;20210;-77
2022/06/30 07:06:02;;;;;;;4.55;3.53;;;;;;;26.90;90.78;99051.53;5099720;28;20820;-77
2022/06/30 07:08:29;;;;;;;3.63;3.33;;;;;;;27.02;93.04;99050.75;5116325;28;20233;-77
2022/06/30 07:10:56;;;;;;;3.88;3.30;;;;;;;27.24;91.42;99052.28;5092761;28;20241;-76
2022/06/30 07:13:24;;;;;;;3.67;3.38;;;;;;;27.45;88.85;99052.94;5104761;28;20224;-77
2022/06/30 07:15:50;;;;;;;5.32;3.22;;;;;;;27.05;85.29;99050.88;5107861;28;20315;-77
2022/06/30 07:18:17;;;;;;;3.55;3.25;;;;;;;27.28;83.72;99047.69;5104925;28;20917;-78
2022/06/30 07:20:44;;;;;;;3.50;3.20;;;;;;;27.39;83.64;99048.84;5108233;28;20260;-77
2022/06/30 07:23:11;;;;;;;3.38;3.13;;;;;;;27.55;84.56;99047.81;5085633;28;20749;-80
2022/06/30 07:25:55;;;;;;;3.58;3.28;;;;;;;27.81;72.98;99047.41;5112226;28;20776;-77
2022/06/30 07:28:22;;;;;;;3.28;3.05;;;;;;;27.80;74.72;99045.03;5102047;28;20265;-78
2022/06/30 07:31:10;;;;;;;3.20;2.90;;;;;;;27.85;70.61;99045.59;5106092;28;20258;-78
2022/06/30 07:33:36;;;;;;;3.38;3.08;;;;;;;27.78;71.64;99042.63;5104543;28;20234;-77
2022/06/30 07:36:04;;;;;;;3.28;2.97;;;;;;;28.06;73.08;99030.84;5096486;28;20857;-77
2022/06/30 07:38:30;;;;;;;3.50;3.20;;;;;;;28.38;70.92;99040.84;5096877;28;20255;-78
2022/06/30 07:40:57;;;;;;;3.50;3.20;;;;;;;28.68;67.98;99039.31;5105385;28;20315;-78
2022/06/30 07:43:24;;;;;;;3.80;3.50;;;;;;;28.38;67.14;99043.59;5100587;28;20230;-78
2022/06/30 07:45:52;;;;;;;3.53;3.20;;;;;;;28.60;66.93;99031.22;5107350;27;20232;-79
2022/06/30 07:48:19;;;;;;;3.28;3.03;;;;;;;28.75;65.37;99027.69;5114204;27;20235;-78
2022/06/30 07:50:45;;;;;;;3.45;3.10;;;;;;;29.07;66.45;99028.53;5097152;28;20314;-78
2022/06/30 07:53:12;;;;;;;4.70;3.45;;;;;;;29.26;62.35;99034.91;5116226;27;20776;-78
2022/06/30 07:55:39;;;;;;;3.35;2.97;;;;;;;28.99;60.78;99026.72;5122956;27;20310;-78
2022/06/30 07:58:06;;;;;;;3.50;3.20;;;;;;;29.04;61.88;99026.47;5123423;27;20223;-78
2022/06/30 08:00:33;;;;;;;3.15;2.85;;;;;;;29.21;62.21;99031.59;5122771;27;20264;-78
2022/06/30 08:03:00;;;;;;;3.75;2.70;;;;;;;29.02;62.61;99031.56;5106075;27;20322;-78
2022/06/30 08:05:26;;;;;;;4.43;3.08;;;;;;;29.16;61.85;99026.38;5104449;27;20318;-78
2022/06/30 08:07:53;;;;;;;4.57;3.08;;;;;;;29.02;59.91;99018.56;5116420;27;20314;-77
2022/06/30 08:10:19;;;;;;;3.15;2.95;;;;;;;28.97;60.87;99018.84;5111186;27;20235;-78
2022/06/30 08:12:46;;;;;;;4.22;3.33;;;;;;;28.69;63.93;99015.31;5110245;27;20251;-78
2022/06/30 08:15:13;;;;;;;4.15;3.10;;;;;;;28.71;67.37;99022.09;5111091;27;20738;-77
2022/06/30 08:17:39;;;;;;;3.95;3.38;;;;;;;28.74;61.94;99021.38;5109235;27;20299;-78
2022/06/30 08:20:06;;;;;;;5.10;3.13;;;;;;;28.45;62.20;99022.56;5106844;27;20250;-78
2022/06/30 08:22:33;;;;;;;3.67;3.22;;;;;;;28.77;62.96;99019.88;5105915;27;20334;-77
2022/06/30 08:25:01;;;;;;;3.47;3.17;;;;;;;28.44;65.31;99020.16;5109920;27;20747;-81
2022/06/30 08:27:28;;;;;;;4.68;3.33;;;;;;;28.63;64.00;99017.53;5099691;27;20212;-77
2022/06/30 08:29:55;;;;;;;3.20;3.00;;;;;;;28.70;65.95;99014.13;5104041;27;20318;-77
2022/06/30 08:32:22;;;;;;;3.50;3.20;;;;;;;28.92;66.78;99018.28;5120364;27;20673;-78
2022/06/30 08:34:49;;;;;;;3.55;3.35;;;;;;;28.95;67.97;99010.09;5096702;27;20644;-77
2022/06/30 08:37:16;;;;;;;4.43;3.20;;;;;;;29.01;66.45;99008.69;5088951;28;20318;-77
2022/06/30 08:42:30;;;;;;;3.60;3.30;;;;;;;29.09;64.37;99010.44;5112621;27;20729;-77
2022/06/30 08:47:47;;;;;;;3.63;3.33;;;;;;;29.04;63.50;99004.41;5118011;27;20690;-79
2022/06/30 08:50:17;;;;;;;5.22;3.53;;;;;;;29.02;62.45;98999.25;5108520;27;20235;-78
2022/06/30 08:52:52;;;;;;;3.42;3.20;;;;;;;28.79;61.25;99007.34;5113200;27;20238;-78
2022/06/30 08:55:27;;;;;;;3.47;3.17;;;;;;;28.72;62.13;99004.41;5122181;27;20278;-78
2022/06/30 08:58:20;;;;;;;3.90;3.15;;;;;;;28.38;65.96;99005.81;5106895;27;20226;-77
2022/06/30 09:00:46;;;;;;;4.22;3.42;;;;;;;28.80;66.18;98994.34;5098056;28;20231;-77
2022/06/30 09:03:13;;;;;;;3.83;3.45;;;;;;;29.08;66.99;98994.25;5103581;27;20519;-78
2022/06/30 09:05:44;;;;;;;4.05;3.30;;;;;;;28.81;65.85;99006.97;5105150;28;20367;-77
2022/06/30 09:08:11;;;;;;;3.95;3.50;;;;;;;28.87;62.98;98998.09;5115429;27;20285;-78
2022/06/30 09:10:54;;;;;;;3.88;3.55;;;;;;;29.06;62.91;98991.88;5100845;27;20222;-77
2022/06/30 09:13:22;;;;;;;4.47;3.50;;;;;;;29.34;61.40;98990.97;5091450;28;20666;-77
2022/06/30 09:15:49;;;;;;;3.60;3.30;;;;;;;29.36;60.61;98999.66;5113981;27;20227;-78
2022/06/30 09:18:26;;;;;;;4.22;3.65;;;;;;;29.48;59.94;98997.63;5115741;27;20259;-78
2022/06/30 09:20:54;;;;;;;3.97;3.65;;;;;;;29.27;60.39;98988.81;5094725;27;20239;-77
2022/06/30 09:23:22;;;;;;;4.22;3.70;;;;;;;28.68;64.34;98992.47;5095944;27;20222;-78
2022/06/30 09:25:53;;;;;;;3.92;3.50;;;;;;;29.09;65.19;98993.91;5096058;28;20300;-78
2022/06/30 09:28:46;;;;;;;4.20;3.80;;;;;;;29.51;62.28;98996.09;5114762;27;20672;-78
2022/06/30 09:31:38;;;;;;;4.10;3.70;;;;;;;29.49;59.49;98990.16;5097261;27;20250;-78
2022/06/30 09:34:16;;;;;;;6.22;4.00;;;;;;;29.55;60.83;98989.47;5080909;27;20227;-77
2022/06/30 09:36:51;;;;;;;4.10;3.78;;;;;;;29.35;59.41;98987.06;5109594;27;20215;-78
2022/06/30 09:39:20;;;;;;;5.22;4.00;;;;;;;29.40;60.76;98987.56;5114613;27;20692;-78
2022/06/30 09:41:48;;;;;;;4.38;3.97;;;;;;;29.73;59.27;98987.09;5114272;27;20645;-79
2022/06/30 09:44:20;;;;;;;5.32;3.90;;;;;;;29.80;60.47;98992.00;5102108;27;20314;-78
2022/06/30 09:47:04;;;;;;;5.05;4.57;;;;;;;29.96;57.78;98981.69;5096737;27;20710;-78
2022/06/30 09:49:36;;;;;;;4.80;4.30;;;;;;;29.96;59.68;98993.53;5090205;28;20248;-77
2022/06/30 09:52:24;;;;;;;5.00;4.45;;;;;;;29.65;61.85;98977.88;5093764;28;20336;-78
2022/06/30 09:54:51;;;;;;;4.40;4.00;;;;;;;30.07;62.07;98972.47;5096709;28;20232;-77
2022/06/30 09:57:18;;;;;;;4.95;3.78;;;;;;;30.03;61.25;98965.28;5101118;28;20242;-78
2022/06/30 09:59:45;;;;;;;4.72;4.20;;;;;;;29.90;60.85;98964.66;5091375;28;20251;-78
2022/06/30 10:02:12;;;;;;;4.63;3.92;;;;;;;30.17;60.91;98965.56;5096848;28;20234;-78
2022/06/30 10:04:53;;;;;;;5.18;4.68;;;;;;;30.17;57.54;98960.84;5095443;28;20667;-77
2022/06/30 10:07:21;;;;;;;4.88;4.47;;;;;;;30.57;56.77;98960.41;5097125;28;20231;-78
2022/06/30 10:09:51;;;;;;;4.53;4.20;;;;;;;30.78;55.68;98953.66;5092067;28;20340;-78
2022/06/30 10:12:24;;;;;;;4.70;4.25;;;;;;;30.60;57.73;98964.41;5091886;28;20254;-79
2022/06/30 10:14:52;;;;;;;5.25;4.80;;;;;;;30.64;55.42;98958.94;5095538;28;20718;-77
2022/06/30 10:17:22;;;;;;;4.93;4.50;;;;;;;30.64;54.73;98956.19;5090777;28;20239;-82
2022/06/30 10:19:50;;;;;;;6.53;4.68;;;;;;;30.55;54.62;98945.38;5093316;28;20224;-79
2022/06/30 10:22:22;;;;;;;5.43;4.93;;;;;;;30.85;53.52;98953.75;5092734;28;20229;-78
2022/06/30 10:24:51;;;;;;;5.03;4.63;;;;;;;30.99;53.69;98951.22;5089092;28;20230;-78
2022/06/30 10:27:19;;;;;;;5.00;4.53;;;;;;;30.84;55.07;98949.44;5090167;28;20329;-78
2022/06/30 10:29:55;;;;;;;4.65;4.30;;;;;;;31.22;53.17;98940.94;5091202;28;20277;-78
2022/06/30 10:32:43;;;;;;;4.63;4.32;;;;;;;31.07;53.85;98941.91;5102147;28;20237;-78
2022/06/30 10:35:28;;;;;;;4.53;4.13;;;;;;;31.38;53.39;98943.56;5091824;28;20723;-78
2022/06/30 10:38:21;;;;;;;5.35;4.85;;;;;;;31.62;50.28;98945.09;5093321;28;20289;-81
2022/06/30 10:41:00;;;;;;;5.75;4.93;;;;;;;31.67;52.06;98934.50;5087632;28;20277;-79
2022/06/30 10:43:32;;;;;;;7.35;4.82;;;;;;;31.52;50.83;98937.41;5080323;28;20763;-80
2022/06/30 10:46:03;;;;;;;6.20;5.10;;;;;;;31.61;50.91;98941.53;5102831;28;20255;-80
2022/06/30 10:48:51;;;;;;;5.00;4.60;;;;;;;31.94;49.38;98939.94;5084484;28;20224;-80
2022/06/30 10:51:17;;;;;;;7.68;5.05;;;;;;;31.65;49.31;98941.56;5072649;28;20233;-80
2022/06/30 10:53:44;;;;;;;7.30;5.18;;;;;;;31.99;49.71;98934.06;5072619;28;20221;-79
2022/06/30 10:56:17;;;;;;;6.07;4.97;;;;;;;31.50;52.02;98934.22;5082404;28;20667;-79
2022/06/30 10:59:06;;;;;;;7.03;5.57;;;;;;;31.62;49.50;98934.03;5070134;28;20230;-81
2022/06/30 11:01:33;;;;;;;5.80;4.90;;;;;;;32.02;47.75;98936.06;5067635;28;20252;-81
2022/06/30 11:04:01;;;;;;;5.70;4.78;;;;;;;32.36;47.37;98928.56;5062681;28;20224;-79
2022/06/30 11:06:54;;;;;;;5.65;5.07;;;;;;;32.24;46.47;98924.09;5043977;28;20252;-80
2022/06/30 11:10:00;;;;;;;6.55;4.95;;;;;;;32.77;45.89;98921.81;5090806;28;20224;-77
2022/06/30 11:12:32;;;;;;;9.27;5.00;;;;;;;33.08;46.92;98923.25;5077428;28;20233;-79
2022/06/30 11:14:59;;;;;;;8.45;5.65;;;;;;;32.73;46.17;98934.88;5071941;28;20236;-80
2022/06/30 11:17:28;;;;;;;5.25;4.78;;;;;;;32.71;48.10;98929.69;5059372;28;20772;-79
2022/06/30 11:20:06;;;;;;;5.82;5.03;;;;;;;32.62;47.57;98925.63;5067343;28;20772;-80
2022/06/30 11:22:34;;;;;;;5.47;4.90;;;;;;;32.73;46.09;98916.25;5067269;28;20225;-80
2022/06/30 11:25:06;;;;;;;5.47;4.80;;;;;;;32.71;44.77;98926.13;5075957;28;20315;-80
2022/06/30 11:27:33;;;;;;;5.25;4.72;;;;;;;33.35;43.65;98919.09;5077471;28;20700;-82
2022/06/30 11:30:06;;;;;;;5.78;5.22;;;;;;;33.11;43.51;98906.63;5072496;28;20220;-79
2022/06/30 11:32:34;;;;;;;6.38;4.70;;;;;;;33.07;44.16;98910.56;5070537;28;20220;-81
2022/06/30 11:35:00;;;;;;;5.68;5.20;;;;;;;32.62;45.11;98903.44;5077127;28;20311;-78
2022/06/30 11:37:29;;;;;;;5.65;4.93;;;;;;;33.40;43.23;98909.59;5067088;28;20248;-78
2022/06/30 11:40:00;;;;;;;6.22;5.20;;;;;;;33.69;43.20;98908.56;5078598;28;20263;-77
2022/06/30 11:42:27;;;;;;;5.40;5.00;;;;;;;33.37;44.21;98907.56;5072416;28;20221;-79
2022/06/30 11:44:54;;;;;;;5.20;4.63;;;;;;;33.29;42.47;98895.66;5075435;28;20229;-78
2022/06/30 11:47:22;;;;;;;5.32;4.82;;;;;;;33.08;43.24;98892.72;5073094;28;20249;-80
2022/06/30 11:49:48;;;;;;;6.75;5.00;;;;;;;33.13;42.83;98900.66;5109547;27;20309;-78
2022/06/30 11:52:22;;;;;;;5.63;4.97;;;;;;;33.73;43.59;98901.06;5111328;27;20242;-77